Time;durP1;ratioP1;P1;durP2;ratioP2;P2;SDS_P1;SDS_P2;PMS_P1;PMS_P2;Temp;Humidity;BMP_temperature;BMP_pressure;BME280_temperature;BME280_humidity;BME280_pressure;Samples;Min_cycle;Max_cycle;Signal;HPM_P1;HPM_P2
2021/01/14 00:02:06;;;;;;;9.37;3.40;;;4.20;72.20;;;;;;5004386;23;20586;-67
2021/01/14 00:04:32;;;;;;;4.67;3.00;;;4.20;72.30;;;;;;4999417;28;20327;-67
2021/01/14 00:06:58;;;;;;;3.17;2.30;;;4.10;72.20;;;;;;5023847;22;20819;-67
2021/01/14 00:09:24;;;;;;;11.23;2.80;;;4.10;72.60;;;;;;5040884;23;20358;-67
2021/01/14 00:11:50;;;;;;;4.67;2.20;;;4.10;73.20;;;;;;5005031;23;20231;-67
2021/01/14 00:14:16;;;;;;;6.10;3.10;;;4.10;73.50;;;;;;4976513;28;20187;-67
2021/01/14 00:16:41;;;;;;;4.97;2.57;;;4.10;73.80;;;;;;5015841;22;20234;-67
2021/01/14 00:19:07;;;;;;;6.47;2.70;;;4.10;74.20;;;;;;5014007;23;20253;-67
2021/01/14 00:21:43;;;;;;;5.03;3.23;;;4.20;74.10;;;;;;5017530;23;20249;-67
2021/01/14 00:24:09;;;;;;;5.80;2.37;;;4.20;74.10;;;;;;5043157;23;20230;-67
2021/01/14 00:26:35;;;;;;;6.07;2.33;;;4.10;74.30;;;;;;5027478;28;20627;-67
2021/01/14 00:29:02;;;;;;;5.23;2.47;;;4.20;74.90;;;;;;4999218;23;614349;-67
2021/01/14 00:31:27;;;;;;;3.60;2.10;;;4.10;75.70;;;;;;5011289;23;20266;-67
2021/01/14 00:33:54;;;;;;;4.07;2.67;;;4.20;75.80;;;;;;5024199;23;20626;-67
2021/01/14 00:36:30;;;;;;;7.07;2.50;;;4.10;76.40;;;;;;5023099;28;20223;-67
2021/01/14 00:38:58;;;;;;;5.40;2.60;;;4.10;76.80;;;;;;5031103;23;20241;-67
2021/01/14 00:41:24;;;;;;;5.40;2.97;;;4.10;77.20;;;;;;5022324;23;20234;-67
2021/01/14 00:43:49;;;;;;;6.07;2.40;;;4.10;78.10;;;;;;5037321;23;20234;-66
2021/01/14 00:46:20;;;;;;;6.83;2.97;;;4.00;79.50;;;;;;5009390;23;20840;-66
2021/01/14 00:48:46;;;;;;;5.40;3.17;;;;;;;;;;5014986;23;20243;-66
2021/01/14 00:51:12;;;;;;;5.67;3.03;;;;;;;;;;5006342;23;20706;-66
2021/01/14 00:53:38;;;;;;;7.83;3.00;;;4.00;81.50;;;;;;4993926;28;21061;-66
2021/01/14 00:56:05;;;;;;;4.80;2.97;;;3.90;82.50;;;;;;5021602;23;20673;-66
2021/01/14 00:58:32;;;;;;;6.17;3.07;;;3.90;83.40;;;;;;5047903;23;20979;-66
2021/01/14 01:00:58;;;;;;;4.50;2.10;;;3.90;83.70;;;;;;5048811;28;20192;-66
2021/01/14 01:03:23;;;;;;;3.50;1.73;;;3.90;82.70;;;;;;5065484;23;20242;-66
2021/01/14 01:05:49;;;;;;;5.57;3.00;;;;;;;;;;5012232;23;20228;-66
2021/01/14 01:08:15;;;;;;;5.93;2.87;;;;;;;;;;5001099;28;20314;-66
2021/01/14 01:10:41;;;;;;;4.90;2.50;;;3.90;82.60;;;;;;5039042;23;20881;-66
2021/01/14 01:13:06;;;;;;;6.53;3.23;;;3.90;82.70;;;;;;5027035;28;20327;-66
2021/01/14 01:15:32;;;;;;;4.20;2.30;;;3.90;81.90;;;;;;5025180;22;20661;-66
2021/01/14 01:17:58;;;;;;;10.07;4.03;;;;;;;;;;5039036;23;20372;-65
2021/01/14 01:20:24;;;;;;;6.77;3.23;;;4.00;79.10;;;;;;5025531;28;20909;-66
2021/01/14 01:22:50;;;;;;;8.10;3.13;;;4.00;78.00;;;;;;5031996;23;20377;-66
2021/01/14 01:25:16;;;;;;;7.10;3.80;;;;;;;;;;4997148;28;20274;-66
2021/01/14 01:27:41;;;;;;;7.20;3.97;;;4.00;77.50;;;;;;5030901;22;20234;-66
2021/01/14 01:30:08;;;;;;;7.60;4.00;;;4.00;77.70;;;;;;5013743;28;20191;-66
2021/01/14 01:32:34;;;;;;;6.47;2.83;;;4.00;75.60;;;;;;5040683;22;20291;-65
2021/01/14 01:35:00;;;;;;;13.50;3.50;;;4.00;75.60;;;;;;5048639;23;20713;-66
2021/01/14 01:37:25;;;;;;;5.90;3.33;;;4.00;75.60;;;;;;5046357;28;20649;-66
2021/01/14 01:39:51;;;;;;;7.30;3.50;;;4.00;75.50;;;;;;5057016;23;20712;-66
2021/01/14 01:42:17;;;;;;;6.73;2.87;;;4.00;74.70;;;;;;5024448;23;20241;-66
2021/01/14 01:44:43;;;;;;;5.47;3.27;;;4.00;75.30;;;;;;5012702;23;20300;-66
2021/01/14 01:47:09;;;;;;;13.80;3.63;;;4.00;75.60;;;;;;4991682;28;20196;-66
2021/01/14 01:49:38;;;;;;;7.57;3.30;;;4.00;75.00;;;;;;5032923;23;20237;-66
2021/01/14 01:52:06;;;;;;;5.93;3.37;;;4.00;75.40;;;;;;5045406;23;20685;-66
2021/01/14 01:54:33;;;;;;;5.67;3.40;;;3.80;74.70;;;;;;5041919;23;20242;-66
2021/01/14 01:57:01;;;;;;;6.23;3.00;;;4.00;74.30;;;;;;5027817;23;20235;-66
2021/01/14 01:59:29;;;;;;;5.37;2.90;;;4.10;74.20;;;;;;5010505;28;20189;-66
2021/01/14 02:01:55;;;;;;;4.73;2.80;;;4.10;73.50;;;;;;5018394;23;20227;-66
2021/01/14 02:04:20;;;;;;;7.27;4.07;;;4.10;73.50;;;;;;5016184;28;20260;-66
2021/01/14 02:07:03;;;;;;;7.60;3.93;;;4.00;73.30;;;;;;5004071;28;20269;-66
2021/01/14 02:09:29;;;;;;;6.03;3.57;;;4.00;73.40;;;;;;5001652;23;20242;-66
2021/01/14 02:12:13;;;;;;;5.23;2.80;;;3.90;73.60;;;;;;4991964;23;20241;-66
2021/01/14 02:14:40;;;;;;;4.33;2.23;;;3.90;74.20;;;;;;5010002;23;20237;-66
2021/01/14 02:17:06;;;;;;;12.67;3.93;;;4.00;73.40;;;;;;5034864;23;20245;-66
2021/01/14 02:19:41;;;;;;;5.43;3.23;;;3.90;73.10;;;;;;5045577;23;20242;-66
2021/01/14 02:22:13;;;;;;;6.10;3.10;;;3.90;73.80;;;;;;5036581;23;20348;-66
2021/01/14 02:24:41;;;;;;;4.07;2.57;;;4.20;72.40;;;;;;5019094;23;20634;-66
2021/01/14 02:27:09;;;;;;;8.60;3.63;;;4.10;72.20;;;;;;5035816;23;20223;-67
2021/01/14 02:29:36;;;;;;;4.27;2.07;;;4.20;64.50;;;;;;5021101;23;20234;-66
2021/01/14 02:32:02;;;;;;;3.60;2.10;;;4.00;67.20;;;;;;5013259;23;20223;-66
2021/01/14 02:34:28;;;;;;;8.83;2.77;;;3.90;67.90;;;;;;5019348;23;20573;-66
2021/01/14 02:36:53;;;;;;;5.47;2.63;;;4.00;70.60;;;;;;5031463;23;20242;-66
2021/01/14 02:39:19;;;;;;;5.57;2.83;;;3.80;67.70;;;;;;5024793;23;20282;-66
2021/01/14 02:41:45;;;;;;;6.50;2.33;;;3.80;57.70;;;;;;5008631;23;20664;-66
2021/01/14 02:44:10;;;;;;;3.70;1.93;;;3.80;56.90;;;;;;5025925;23;20231;-66
2021/01/14 02:46:36;;;;;;;4.70;2.13;;;3.80;58.60;;;;;;5011861;28;20187;-66
2021/01/14 02:49:06;;;;;;;4.87;1.90;;;3.80;60.20;;;;;;5019075;23;20235;-66
2021/01/14 02:51:34;;;;;;;5.23;1.83;;;3.80;60.90;;;;;;5028776;23;20241;-66
2021/01/14 02:54:01;;;;;;;5.07;1.93;;;3.70;58.50;;;;;;5030910;23;20304;-66
2021/01/14 02:56:27;;;;;;;5.70;2.17;;;3.70;58.50;;;;;;5028060;28;20643;-66
2021/01/14 02:58:56;;;;;;;2.97;1.47;;;3.70;57.10;;;;;;5039785;23;20238;-66
2021/01/14 03:01:22;;;;;;;2.83;1.17;;;;;;;;;;5005702;28;20198;-65
2021/01/14 03:03:48;;;;;;;4.53;1.87;;;;;;;;;;4993885;23;21814;-65
2021/01/14 03:06:14;;;;;;;5.53;1.70;;;;;;;;;;4997478;28;20220;-65
2021/01/14 03:08:40;;;;;;;3.73;1.57;;;;;;;;;;5048386;23;20279;-66
2021/01/14 03:11:05;;;;;;;6.30;1.77;;;3.60;55.00;;;;;;5043583;23;20794;-66
2021/01/14 03:13:31;;;;;;;5.43;1.60;;;;;;;;;;5049821;23;20268;-66
2021/01/14 03:15:57;;;;;;;2.20;1.07;;;;;;;;;;5026066;28;20614;-65
2021/01/14 03:18:23;;;;;;;7.47;2.33;;;;;;;;;;5034861;28;20190;-66
2021/01/14 03:20:49;;;;;;;5.00;1.50;;;;;;;;;;5049184;23;20237;-66
2021/01/14 03:23:15;;;;;;;4.83;1.80;;;3.60;56.20;;;;;;5033125;23;20269;-65
2021/01/14 03:25:42;;;;;;;5.57;1.87;;;;;;;;;;5009734;28;20393;-66
2021/01/14 03:28:08;;;;;;;6.67;1.90;;;;;;;;;;5018563;23;20235;-66
2021/01/14 03:30:33;;;;;;;6.13;1.47;;;3.50;57.50;;;;;;5010737;28;20647;-66
2021/01/14 03:32:59;;;;;;;2.90;1.23;;;3.30;57.30;;;;;;5032943;23;20321;-66
2021/01/14 03:35:24;;;;;;;2.47;1.03;;;3.30;57.10;;;;;;5041228;28;20225;-66
2021/01/14 03:37:50;;;;;;;11.93;1.40;;;3.30;57.20;;;;;;5045480;23;20242;-66
2021/01/14 03:40:17;;;;;;;3.83;1.50;;;3.30;58.20;;;;;;5027723;28;20182;-66
2021/01/14 03:42:43;;;;;;;3.80;1.53;;;3.30;57.50;;;;;;5053606;23;20275;-65
2021/01/14 03:45:09;;;;;;;3.90;1.23;;;3.30;58.20;;;;;;5017542;23;20234;-66
2021/01/14 03:47:35;;;;;;;3.70;1.57;;;;;;;;;;5035462;23;20230;-66
2021/01/14 03:50:00;;;;;;;6.17;1.93;;;3.20;58.10;;;;;;5003929;23;20293;-66
2021/01/14 03:52:26;;;;;;;4.07;1.47;;;;;;;;;;5021396;23;20239;-65
2021/01/14 03:54:52;;;;;;;3.27;1.40;;;3.30;58.20;;;;;;5023493;28;20266;-66
2021/01/14 03:57:18;;;;;;;5.13;1.60;;;3.20;58.80;;;;;;5026187;23;21769;-66
2021/01/14 03:59:44;;;;;;;2.47;0.93;;;;;;;;;;5040190;23;20240;-66
2021/01/14 04:02:10;;;;;;;6.13;1.53;;;3.30;58.50;;;;;;5026128;23;20243;-66
2021/01/14 04:04:37;;;;;;;3.03;1.53;;;3.20;59.30;;;;;;5033115;23;20352;-66
2021/01/14 04:07:06;;;;;;;4.03;1.40;;;3.20;59.00;;;;;;5034995;23;20378;-65
2021/01/14 04:09:32;;;;;;;2.97;1.33;;;;;;;;;;5039321;23;20235;-66
2021/01/14 04:11:57;;;;;;;2.40;1.27;;;3.10;58.70;;;;;;5020601;28;20197;-66
2021/01/14 04:14:23;;;;;;;3.33;1.30;;;;;;;;;;5031469;23;20652;-66
2021/01/14 04:16:50;;;;;;;3.50;1.23;;;3.20;58.00;;;;;;5014761;23;20234;-66
2021/01/14 04:19:16;;;;;;;2.67;1.50;;;3.10;57.10;;;;;;4986671;28;20183;-66
2021/01/14 04:21:42;;;;;;;2.50;1.27;;;3.20;58.10;;;;;;5034177;23;20222;-66
2021/01/14 04:24:07;;;;;;;6.67;1.53;;;3.00;57.90;;;;;;5019658;23;20671;-66
2021/01/14 04:26:33;;;;;;;3.33;1.50;;;3.00;59.20;;;;;;5010733;23;20250;-66
2021/01/14 04:28:58;;;;;;;4.23;1.57;;;3.00;60.20;;;;;;5022057;23;20234;-66
2021/01/14 04:31:24;;;;;;;5.50;1.77;;;3.00;59.20;;;;;;5032188;23;20245;-66
2021/01/14 04:33:50;;;;;;;4.40;1.50;;;;;;;;;;5028232;23;20230;-66
2021/01/14 04:36:16;;;;;;;2.57;1.13;;;;;;;;;;5019701;23;20230;-66
2021/01/14 04:38:42;;;;;;;2.97;1.20;;;3.10;58.00;;;;;;5027235;23;20269;-66
2021/01/14 04:41:08;;;;;;;5.17;1.83;;;;;;;;;;5014670;28;20500;-66
2021/01/14 04:43:34;;;;;;;5.43;1.27;;;3.10;58.10;;;;;;5045606;23;21331;-66
2021/01/14 04:46:08;;;;;;;6.77;2.00;;;3.10;58.50;;;;;;5052394;28;20198;-66
2021/01/14 04:48:38;;;;;;;3.73;1.20;;;3.00;58.90;;;;;;5005112;23;20242;-66
2021/01/14 04:51:08;;;;;;;5.57;1.53;;;3.00;59.50;;;;;;5032753;23;20669;-66
2021/01/14 04:53:37;;;;;;;4.30;1.50;;;2.90;59.60;;;;;;5018863;23;20242;-66
2021/01/14 04:56:06;;;;;;;1.60;0.73;;;2.90;59.50;;;;;;5011125;23;20236;-66
2021/01/14 04:58:33;;;;;;;2.73;1.20;;;2.90;60.00;;;;;;5016935;23;20231;-66
2021/01/14 05:00:59;;;;;;;3.80;1.33;;;2.80;59.20;;;;;;5022038;28;20213;-66
2021/01/14 05:03:28;;;;;;;3.77;1.53;;;2.80;59.20;;;;;;5032769;23;20264;-66
2021/01/14 05:05:55;;;;;;;4.50;1.43;;;2.80;57.80;;;;;;5011037;28;20215;-66
2021/01/14 05:08:32;;;;;;;2.87;1.27;;;2.80;57.90;;;;;;5020153;23;20239;-66
2021/01/14 05:10:58;;;;;;;2.73;1.00;;;2.90;57.50;;;;;;5021246;23;20904;-66
2021/01/14 05:13:24;;;;;;;2.63;1.00;;;;;;;;;;5019905;23;20241;-66
2021/01/14 05:15:50;;;;;;;3.03;1.23;;;2.90;56.90;;;;;;5052795;23;20694;-66
2021/01/14 05:18:16;;;;;;;2.67;0.97;;;2.80;56.40;;;;;;5051631;28;20222;-66
2021/01/14 05:20:42;;;;;;;5.87;1.40;;;2.70;56.60;;;;;;5036307;23;20234;-66
2021/01/14 05:23:08;;;;;;;6.40;1.67;;;2.80;57.50;;;;;;5010666;28;20195;-66
2021/01/14 05:25:35;;;;;;;2.37;0.83;;;2.70;57.70;;;;;;5031604;23;20593;-66
2021/01/14 05:28:11;;;;;;;6.23;2.03;;;2.70;57.70;;;;;;5034310;23;20240;-66
2021/01/14 05:30:37;;;;;;;5.03;1.60;;;2.70;56.60;;;;;;5037725;23;20238;-66
2021/01/14 05:33:04;;;;;;;3.33;1.23;;;;;;;;;;5030969;28;20195;-66
2021/01/14 05:35:30;;;;;;;3.20;1.17;;;2.70;57.70;;;;;;5037842;23;20230;-66
2021/01/14 05:38:00;;;;;;;4.43;1.57;;;2.70;57.70;;;;;;5027034;23;21275;-66
2021/01/14 05:40:28;;;;;;;2.90;1.10;;;2.80;57.70;;;;;;4997909;23;20587;-66
2021/01/14 05:43:05;;;;;;;4.43;1.20;;;2.80;57.10;;;;;;4988249;28;20567;-66
2021/01/14 05:45:32;;;;;;;5.23;1.70;;;2.70;56.50;;;;;;5009463;22;20227;-66
2021/01/14 05:48:09;;;;;;;6.03;1.53;;;2.70;57.70;;;;;;5010761;23;20358;-66
2021/01/14 05:50:46;;;;;;;5.20;1.40;;;2.70;57.70;;;;;;5002312;23;20286;-66
2021/01/14 05:53:19;;;;;;;3.57;1.33;;;2.70;57.90;;;;;;5011852;23;20258;-66
2021/01/14 05:55:50;;;;;;;6.10;1.87;;;2.70;58.00;;;;;;5023209;23;20243;-66
2021/01/14 05:58:19;;;;;;;1.40;0.60;;;2.60;58.80;;;;;;5023977;23;20227;-66
2021/01/14 06:00:48;;;;;;;5.50;1.03;;;2.60;58.30;;;;;;5015732;28;20541;-66
2021/01/14 06:03:28;;;;;;;3.97;1.53;;;2.60;57.60;;;;;;5038329;23;20456;-66
2021/01/14 06:05:55;;;;;;;3.40;1.47;;;2.70;55.80;;;;;;5027123;23;20234;-66
2021/01/14 06:08:27;;;;;;;5.20;1.63;;;2.80;55.30;;;;;;5021541;23;20235;-66
2021/01/14 06:10:53;;;;;;;2.80;1.27;;;2.80;55.30;;;;;;4994767;28;20195;-66
2021/01/14 06:13:19;;;;;;;3.67;1.43;;;;;;;;;;5007651;23;20720;-66
2021/01/14 06:15:58;;;;;;;5.10;1.83;;;2.70;55.80;;;;;;5003042;28;20227;-66
2021/01/14 06:18:24;;;;;;;4.83;1.63;;;;;;;;;;4997104;23;20308;-66
2021/01/14 06:20:53;;;;;;;3.57;1.23;;;2.80;55.80;;;;;;5017533;23;20326;-66
2021/01/14 06:23:22;;;;;;;4.33;1.33;;;2.70;56.60;;;;;;5002938;23;20705;-66
2021/01/14 06:25:49;;;;;;;2.97;1.17;;;2.80;55.90;;;;;;5008009;28;20187;-66
2021/01/14 06:28:16;;;;;;;4.47;1.63;;;2.70;56.40;;;;;;5023298;23;20262;-66
2021/01/14 06:30:58;;;;;;;4.43;1.40;;;2.60;57.60;;;;;;5022105;28;20717;-66
2021/01/14 06:33:28;;;;;;;7.03;1.63;;;2.50;57.50;;;;;;5051620;23;20234;-66
2021/01/14 06:36:31;;;;;;;4.60;1.57;;;2.50;57.50;;;;;;5017896;23;20231;-66
2021/01/14 06:39:06;;;;;;;3.27;1.57;;;2.40;57.40;;;;;;5029106;23;20312;-66
2021/01/14 06:41:38;;;;;;;2.93;1.20;;;2.50;57.50;;;;;;5032820;28;20186;-66
2021/01/14 06:44:07;;;;;;;3.83;1.57;;;2.40;57.40;;;;;;5029150;23;20383;-66
2021/01/14 06:46:33;;;;;;;5.83;1.37;;;2.40;57.40;;;;;;5028496;23;20277;-66
2021/01/14 06:49:08;;;;;;;2.17;1.03;;;2.40;57.40;;;;;;4998353;23;20266;-66
2021/01/14 06:51:56;;;;;;;5.97;1.63;;;2.30;58.10;;;;;;5016782;28;20189;-66
2021/01/14 06:54:25;;;;;;;5.77;1.93;;;2.40;57.90;;;;;;5027075;23;20693;-66
2021/01/14 06:57:14;;;;;;;2.43;1.13;;;2.30;58.20;;;;;;5024479;23;20308;-66
2021/01/14 06:59:41;;;;;;;10.90;2.50;;;2.30;58.80;;;;;;5026882;23;20243;-66
2021/01/14 07:02:07;;;;;;;3.43;1.50;;;2.30;59.50;;;;;;5017296;23;20249;-66
2021/01/14 07:04:44;;;;;;;4.73;1.67;;;2.40;59.90;;;;;;5026965;23;20323;-66
2021/01/14 07:07:44;;;;;;;4.80;1.77;;;2.40;59.60;;;;;;5012076;23;20238;-66
2021/01/14 07:10:10;;;;;;;5.27;1.90;;;2.30;59.80;;;;;;5034756;23;20694;-65
2021/01/14 07:12:38;;;;;;;2.97;1.17;;;2.30;59.70;;;;;;5032807;23;20581;-66
2021/01/14 07:15:10;;;;;;;1.33;0.87;;;2.30;59.90;;;;;;5037117;28;20221;-65
2021/01/14 07:17:39;;;;;;;3.80;1.63;;;2.40;59.80;;;;;;5043832;23;20604;-66
2021/01/14 07:20:09;;;;;;;7.10;2.30;;;2.20;60.00;;;;;;5017527;23;20702;-66
2021/01/14 07:22:59;;;;;;;4.70;1.97;;;2.30;60.50;;;;;;4995535;23;20315;-67
2021/01/14 07:25:26;;;;;;;4.43;1.70;;;2.30;60.00;;;;;;5060891;23;20367;-67
2021/01/14 07:27:52;;;;;;;4.57;2.03;;;;;;;;;;5029973;22;20318;-67
2021/01/14 07:30:19;;;;;;;6.00;1.43;;;2.30;61.30;;;;;;5050752;23;20233;-67
2021/01/14 07:33:04;;;;;;;3.80;1.70;;;2.30;61.10;;;;;;5054987;28;20556;-67
2021/01/14 07:35:36;;;;;;;3.40;1.40;;;2.20;60.80;;;;;;5053781;23;20282;-67
2021/01/14 07:38:03;;;;;;;3.90;1.57;;;2.20;61.10;;;;;;5002900;23;20283;-67
2021/01/14 07:40:30;;;;;;;2.67;1.17;;;2.10;60.70;;;;;;4983615;28;20185;-67
2021/01/14 07:42:57;;;;;;;3.43;1.47;;;2.20;60.40;;;;;;5006643;23;20239;-67
2021/01/14 07:45:23;;;;;;;6.43;1.93;;;2.20;61.00;;;;;;4992494;28;20865;-68
2021/01/14 07:47:48;;;;;;;2.00;1.00;;;2.20;61.10;;;;;;5231303;22;20238;-67
2021/01/14 07:50:26;;;;;;;5.07;1.67;;;2.10;61.80;;;;;;5020764;28;20265;-67
2021/01/14 07:52:56;;;;;;;2.13;1.17;;;2.20;62.00;;;;;;5024808;23;20225;-70
2021/01/14 07:55:29;;;;;;;4.27;1.60;;;2.20;62.40;;;;;;5027223;23;20249;-67
2021/01/14 07:58:01;;;;;;;3.93;1.27;;;2.20;62.90;;;;;;5002866;28;20182;-68
2021/01/14 08:00:28;;;;;;;2.53;1.27;;;2.20;63.60;;;;;;5026794;22;20241;-67
2021/01/14 08:03:11;;;;;;;2.87;1.40;;;2.20;63.10;;;;;;4996013;28;20202;-67
2021/01/14 08:05:56;;;;;;;3.53;1.50;;;2.30;64.00;;;;;;5039897;23;20230;-68
2021/01/14 08:08:33;;;;;;;5.97;1.67;;;2.20;64.10;;;;;;5040886;23;20696;-67
2021/01/14 08:11:19;;;;;;;6.17;2.50;;;2.20;64.90;;;;;;4999746;23;20279;-67
2021/01/14 08:14:04;;;;;;;15.07;6.17;;;2.10;64.60;;;;;;5017948;23;20329;-68
2021/01/14 08:16:46;;;;;;;10.03;5.00;;;2.20;64.90;;;;;;5727335;22;20242;-68
2021/01/14 08:24:46;;;;;;;8.30;3.10;;;2.30;62.20;;;;;;5622718;22;20705;-69
2021/01/14 08:27:21;;;;;;;3.67;2.13;;;2.20;63.30;;;;;;5109241;23;20637;-69
2021/01/14 08:29:51;;;;;;;5.03;2.27;;;2.30;63.30;;;;;;5044475;28;20186;-68
2021/01/14 08:34:53;;;;;;;4.73;2.00;;;2.60;60.00;;;;;;5623706;22;20657;-68
2021/01/14 08:37:35;;;;;;;3.50;1.70;;;2.60;58.40;;;;;;5019766;28;20202;-68
2021/01/14 08:40:10;;;;;;;4.67;1.93;;;2.60;57.60;;;;;;5462019;22;20704;-68
2021/01/14 08:45:20;;;;;;;7.13;1.77;;;2.90;56.60;;;;;;5285763;22;20223;-68
2021/01/14 08:55:33;;;;;;;8.53;2.20;;;2.80;57.80;;;;;;5185122;22;20238;-68
2021/01/14 08:58:00;;;;;;;3.10;1.20;;;;;;;;;;5626898;22;20831;-69
2021/01/14 09:00:26;;;;;;;7.80;2.30;;;3.10;55.70;;;;;;5496035;22;20276;-67
2021/01/14 09:02:52;;;;;;;2.93;1.60;;;3.00;55.70;;;;;;5039056;28;20206;-67
2021/01/14 09:05:19;;;;;;;2.73;1.20;;;3.00;56.70;;;;;;5273781;23;20224;-68
2021/01/14 09:08:04;;;;;;;2.33;1.47;;;3.10;55.90;;;;;;4970928;28;20185;-67
2021/01/14 09:10:50;;;;;;;3.37;1.43;;;3.00;55.80;;;;;;5031422;22;20246;-67
2021/01/14 09:13:24;;;;;;;4.40;1.70;;;2.90;57.00;;;;;;5035000;23;20273;-67
2021/01/14 09:15:53;;;;;;;23.17;3.07;;;3.10;56.00;;;;;;5907650;22;20353;-67
2021/01/14 09:18:32;;;;;;;3.63;1.30;;;3.10;56.80;;;;;;5153956;22;20323;-68
2021/01/14 09:20:58;;;;;;;3.33;1.57;;;3.20;55.90;;;;;;5214139;23;20321;-67
2021/01/14 09:23:35;;;;;;;1.83;1.20;;;3.20;56.80;;;;;;5165308;23;20253;-67
2021/01/14 09:26:21;;;;;;;2.10;1.00;;;3.20;56.40;;;;;;5187488;23;20700;-67
2021/01/14 09:28:51;;;;;;;3.50;1.83;;;3.30;55.70;;;;;;5323384;23;20253;-69
2021/01/14 09:31:18;;;;;;;2.17;1.13;;;3.40;55.10;;;;;;5387293;23;20705;-67
2021/01/14 09:33:46;;;;;;;1.93;1.20;;;3.40;56.00;;;;;;5182542;23;20240;-67
2021/01/14 09:36:24;;;;;;;4.10;1.90;;;3.40;54.50;;;;;;5209591;23;20604;-67
2021/01/14 09:38:51;;;;;;;10.67;2.27;;;;;;;;;;5217362;23;20794;-67
2021/01/14 09:41:31;;;;;;;4.10;1.97;;;3.20;56.30;;;;;;5059263;28;20264;-67
2021/01/14 09:43:57;;;;;;;3.13;1.57;;;;;;;;;;5798358;22;20443;-67
2021/01/14 09:46:28;;;;;;;3.30;1.57;;;3.30;55.60;;;;;;5682030;22;20326;-67
2021/01/14 09:49:00;;;;;;;6.10;1.53;;;3.40;55.70;;;;;;5573829;22;20234;-67
2021/01/14 09:51:26;;;;;;;4.50;1.47;;;;;;;;;;5090790;23;20357;-67
2021/01/14 09:53:51;;;;;;;3.23;1.50;;;3.60;54.00;;;;;;5011370;28;20191;-69
2021/01/14 09:56:29;;;;;;;4.67;1.40;;;3.80;52.10;;;;;;5165322;23;20285;-67
2021/01/14 09:58:57;;;;;;;3.27;1.40;;;3.70;52.10;;;;;;5192033;23;20234;-67
2021/01/14 10:01:34;;;;;;;6.23;1.80;;;3.70;52.50;;;;;;5187505;23;20233;-68
2021/01/14 10:04:08;;;;;;;2.97;1.13;;;3.70;52.20;;;;;;5191927;23;20234;-68
2021/01/14 10:09:11;;;;;;;3.07;1.23;;;3.50;51.10;;;;;;5086466;22;20233;-68
2021/01/14 10:11:37;;;;;;;4.73;1.77;;;3.50;52.10;;;;;;5047543;28;20179;-68
2021/01/14 10:14:05;;;;;;;3.03;1.37;;;3.60;52.60;;;;;;5156253;23;20756;-67
2021/01/14 10:16:31;;;;;;;2.17;1.07;;;;;;;;;;5256724;23;20580;-68
2021/01/14 10:19:21;;;;;;;2.37;1.37;;;3.60;52.60;;;;;;5669187;22;20238;-67
2021/01/14 10:21:49;;;;;;;3.80;1.47;;;3.70;52.10;;;;;;5105688;22;20244;-67
2021/01/14 10:24:20;;;;;;;5.27;1.90;;;3.90;50.90;;;;;;5411995;22;20258;-67
2021/01/14 10:26:46;;;;;;;4.33;1.80;;;;;;;;;;5755616;22;20517;-67
2021/01/14 10:29:31;;;;;;;2.63;1.07;;;3.90;51.10;;;;;;5021420;28;20218;-67
2021/01/14 10:32:02;;;;;;;3.37;1.20;;;4.00;51.00;;;;;;5088929;23;20958;-67
2021/01/14 10:34:47;;;;;;;3.43;1.43;;;4.00;51.20;;;;;;5116968;23;20238;-68
2021/01/14 10:37:24;;;;;;;4.27;1.40;;;3.90;50.90;;;;;;5107683;22;20322;-68
2021/01/14 10:39:52;;;;;;;4.73;2.03;;;3.90;51.90;;;;;;5057429;23;20360;-67
2021/01/14 10:42:30;;;;;;;2.53;1.23;;;3.80;52.30;;;;;;5085979;23;20720;-68
2021/01/14 10:45:01;;;;;;;2.17;1.13;;;3.90;51.60;;;;;;5041476;23;20238;-68
2021/01/14 10:47:27;;;;;;;6.73;1.43;;;3.90;52.10;;;;;;5005079;23;20354;-68
2021/01/14 10:49:53;;;;;;;4.47;1.77;;;3.90;51.80;;;;;;5006236;28;20286;-68
2021/01/14 10:52:19;;;;;;;6.53;1.80;;;;;;;;;;5037232;23;20226;-68
2021/01/14 10:55:15;;;;;;;4.67;1.63;;;3.90;52.50;;;;;;5053815;28;20221;-67
2021/01/14 10:57:52;;;;;;;5.23;2.00;;;4.00;52.70;;;;;;5513150;22;20230;-68
2021/01/14 11:00:19;;;;;;;4.50;1.57;;;4.10;51.50;;;;;;5338831;22;20227;-68
2021/01/14 11:08:12;;;;;;;6.03;2.33;;;4.20;51.40;;;;;;5746079;22;20253;-67
2021/01/14 11:10:38;;;;;;;3.93;1.60;;;4.20;50.70;;;;;;5439246;23;20222;-67
2021/01/14 11:13:13;;;;;;;2.37;1.27;;;4.20;51.30;;;;;;5271334;23;20246;-67
2021/01/14 11:18:14;;;;;;;4.23;1.73;;;;;;;;;;5357945;22;20226;-68
2021/01/14 11:20:40;;;;;;;4.30;1.67;;;4.10;51.70;;;;;;5040231;28;20744;-67
2021/01/14 11:23:06;;;;;;;5.47;1.80;;;4.00;51.80;;;;;;5012564;23;20239;-67
2021/01/14 11:25:31;;;;;;;3.30;1.63;;;4.10;52.40;;;;;;5037791;23;20249;-67
2021/01/14 11:27:58;;;;;;;5.63;2.07;;;;;;;;;;5149820;22;20238;-67
2021/01/14 11:30:24;;;;;;;3.73;1.63;;;4.10;51.90;;;;;;5020556;28;20197;-67
2021/01/14 11:32:50;;;;;;;3.27;1.40;;;4.10;52.30;;;;;;5010498;23;20304;-67
2021/01/14 11:35:16;;;;;;;2.70;1.33;;;;;;;;;;5096349;23;20230;-67
2021/01/14 11:37:43;;;;;;;4.53;1.37;;;;;;;;;;5138360;22;20569;-66
2021/01/14 11:40:09;;;;;;;2.70;1.20;;;3.90;52.40;;;;;;5033413;28;20184;-67
2021/01/14 11:42:35;;;;;;;5.20;1.87;;;3.90;52.70;;;;;;5034689;23;20662;-67
2021/01/14 11:45:01;;;;;;;3.50;1.20;;;;;;;;;;5083746;22;20260;-67
2021/01/14 11:47:27;;;;;;;5.63;2.00;;;;;;;;;;5049645;28;20516;-67
2021/01/14 11:52:28;;;;;;;5.33;1.83;;;4.00;52.00;;;;;;5416402;22;20325;-67
2021/01/14 11:54:54;;;;;;;2.83;1.23;;;;;;;;;;5010698;28;20289;-67
2021/01/14 11:57:20;;;;;;;4.87;2.20;;;4.00;52.30;;;;;;5345540;23;20325;-67
2021/01/14 11:59:46;;;;;;;4.70;1.67;;;3.90;53.40;;;;;;5345675;23;20735;-67
2021/01/14 12:02:12;;;;;;;4.40;1.77;;;3.80;53.30;;;;;;5419983;22;20351;-67
2021/01/14 12:04:37;;;;;;;3.00;1.47;;;3.70;53.50;;;;;;5120757;23;20366;-67
2021/01/14 12:07:03;;;;;;;8.47;2.07;;;3.70;53.80;;;;;;5002712;28;20192;-67
2021/01/14 12:17:16;;;;;;;11.77;2.40;;;3.90;54.00;;;;;;5537016;22;20213;-67
2021/01/14 12:24:56;;;;;;;3.53;1.63;;;3.80;54.00;;;;;;5327730;22;20271;-67
2021/01/14 12:27:22;;;;;;;4.50;1.20;;;;;;;;;;5048963;23;20234;-66
2021/01/14 12:29:48;;;;;;;3.87;1.77;;;;;;;;;;5036020;28;20189;-66
2021/01/14 12:32:14;;;;;;;3.47;1.63;;;3.70;54.30;;;;;;5039453;28;20315;-66
2021/01/14 12:34:40;;;;;;;7.27;1.67;;;;;;;;;;5047124;23;20298;-66
2021/01/14 12:37:06;;;;;;;5.70;2.30;;;3.90;54.00;;;;;;5056958;28;20533;-66
2021/01/14 12:39:31;;;;;;;3.40;1.57;;;4.00;53.10;;;;;;5105689;23;20237;-66
2021/01/14 12:41:57;;;;;;;6.63;1.40;;;4.10;52.40;;;;;;5051869;23;20314;-66
2021/01/14 12:44:23;;;;;;;9.23;2.23;;;;;;;;;;5062504;22;21525;-67
2021/01/14 12:46:49;;;;;;;5.60;2.03;;;3.90;53.90;;;;;;5014628;28;20331;-67
2021/01/14 12:49:17;;;;;;;3.20;1.43;;;3.90;53.30;;;;;;5001683;23;20305;-66
2021/01/14 12:51:45;;;;;;;4.37;1.57;;;3.90;53.60;;;;;;5021369;22;20269;-67
2021/01/14 12:54:11;;;;;;;5.07;2.23;;;;;;;;;;4999534;28;20200;-67
2021/01/14 12:56:37;;;;;;;6.90;2.03;;;3.80;54.00;;;;;;5032391;22;20238;-67
2021/01/14 12:59:06;;;;;;;3.03;1.60;;;3.90;54.90;;;;;;5214037;23;20340;-67
2021/01/14 13:01:36;;;;;;;3.20;1.67;;;4.10;53.20;;;;;;5044133;28;20240;-67
2021/01/14 13:04:04;;;;;;;3.27;1.43;;;4.20;52.40;;;;;;5690483;22;20263;-67
2021/01/14 13:06:31;;;;;;;12.40;2.63;;;4.20;52.90;;;;;;5514079;22;20214;-67
2021/01/14 13:11:32;;;;;;;4.10;1.73;;;;;;;;;;5441096;22;20226;-67
2021/01/14 13:13:59;;;;;;;20.83;3.30;;;3.80;53.80;;;;;;5809868;22;20179;-66
2021/01/14 13:16:36;;;;;;;4.00;1.73;;;3.80;53.90;;;;;;5465317;22;20584;-68
2021/01/14 13:24:15;;;;;;;4.80;2.30;;;4.00;54.10;;;;;;5147787;22;20281;-67
2021/01/14 13:26:40;;;;;;;2.53;1.33;;;4.00;54.10;;;;;;5047604;28;20661;-65
2021/01/14 13:29:07;;;;;;;4.43;2.40;;;4.00;54.40;;;;;;5055658;23;20325;-66
2021/01/14 13:31:40;;;;;;;4.17;1.83;;;4.10;53.50;;;;;;5165234;22;20238;-72
2021/01/14 13:34:06;;;;;;;5.63;1.87;;;4.00;54.20;;;;;;5361230;22;20313;-66
2021/01/14 13:36:32;;;;;;;6.00;2.20;;;3.90;54.90;;;;;;5051638;23;20236;-67
2021/01/14 13:54:32;;;;;;;18.87;2.90;;;4.00;55.20;;;;;;5827522;22;20671;-69
2021/01/14 13:56:58;;;;;;;3.93;2.03;;;;;;;;;;5039564;22;20407;-68
2021/01/14 13:59:24;;;;;;;4.03;1.87;;;3.80;55.50;;;;;;5020035;28;20199;-68
2021/01/14 14:01:50;;;;;;;3.33;1.77;;;;;;;;;;5658457;23;20438;-68
2021/01/14 14:04:16;;;;;;;3.53;1.50;;;3.90;55.40;;;;;;5726694;23;20248;-68
2021/01/14 14:06:43;;;;;;;2.70;1.77;;;3.80;55.40;;;;;;5474953;23;20503;-68
2021/01/14 14:09:11;;;;;;;3.23;1.70;;;3.70;56.10;;;;;;5446336;22;20248;-68
2021/01/14 14:14:14;;;;;;;3.43;1.53;;;3.40;57.20;;;;;;5204103;23;20314;-67
2021/01/14 14:16:42;;;;;;;10.90;2.03;;;3.30;57.40;;;;;;5631864;23;20231;-71
2021/01/14 14:19:08;;;;;;;1.33;0.90;;;;;;;;;;5307491;22;20327;-68
2021/01/14 14:21:33;;;;;;;3.50;1.67;;;3.20;58.10;;;;;;5198742;23;20253;-67
2021/01/14 14:23:59;;;;;;;3.40;1.70;;;3.30;58.20;;;;;;5145765;22;20257;-67
2021/01/14 14:26:33;;;;;;;4.10;1.43;;;3.30;58.20;;;;;;5466217;22;670511;-68
2021/01/14 14:28:59;;;;;;;8.23;2.50;;;3.10;58.00;;;;;;5347846;22;20325;-68
2021/01/14 14:31:26;;;;;;;5.50;2.00;;;3.10;58.00;;;;;;5680250;23;20222;-67
2021/01/14 14:33:52;;;;;;;3.70;1.70;;;3.10;58.00;;;;;;5354611;23;20230;-67